^^
Station Historical Data
Daily Summary for December 8, 2017 Units:  Metric    English   Both
« Previous Day
Next Day »
Daily Weekly Monthly Yearly Custom
  High: Low: Average:
Temperature: 28.9 °C 16.1 °C 22.1 °C
Dew Point: 21.6 °C 15.4 °C 18.8 °C
Humidity: 100% 56% 84%
Wind Speed: 0km/h 0km/h 0km/h
Wind Gust: 0km/h - -
Wind- - North
Pressure: 1014.4 hPa 1007.7 hPa -
Precipitation: 1.27 mm    
Historical Graphs
 
 
Tabular Data for December 8, 2017
Time Temperature Dew Point Pressure Wind Wind Speed Wind Gust Humidity Rainfall Rate (Hourly) solar Conditions
00:06 19.4 °C 18.7 °C 1014.4 hPa Calm     96% 0 mm 0.0 W/m2 OVC
00:11 19.4 °C 18.7 °C 1014.4 hPa Calm     96% 0 mm 0.0 W/m2 OVC
00:16 19.4 °C 18.7 °C 1014.4 hPa Calm     96% 0 mm 0.0 W/m2 OVC
00:31 19.4 °C 18.7 °C 1014.4 hPa Calm     96% 0 mm 0.0 W/m2 OVC
00:36 19.4 °C 18.7 °C 1014.4 hPa Calm     96% 0 mm 0.0 W/m2 OVC
00:41 19.4 °C 18.7 °C 1014.4 hPa Calm     96% 0 mm 0.0 W/m2 OVC
00:46 19.4 °C 18.7 °C 1014.4 hPa Calm     96% 0 mm 0.0 W/m2 OVC
00:56 19.4 °C 18.7 °C 1014.4 hPa Calm     96% 0 mm 0.0 W/m2 OVC
01:01 18.9 °C 18.2 °C 1014.1 hPa Calm     96% 0 mm 0.0 W/m2 OVC
01:06 18.9 °C 18.2 °C 1014.1 hPa Calm     96% 0 mm 0.0 W/m2 OVC
01:11 18.9 °C 18.2 °C 1014.1 hPa Calm     96% 0 mm 0.0 W/m2 OVC
01:16 18.9 °C 18.2 °C 1014.1 hPa Calm     96% 0 mm 0.0 W/m2 OVC
01:21 18.9 °C 18.2 °C 1014.1 hPa Calm     96% 0 mm 0.0 W/m2 OVC
01:26 18.9 °C 18.2 °C 1014.1 hPa Calm     96% 0 mm 0.0 W/m2 OVC
01:31 18.9 °C 18.2 °C 1014.1 hPa Calm     96% 0 mm 0.0 W/m2 OVC
01:41 18.9 °C 18.2 °C 1014.1 hPa Calm     96% 0 mm 0.0 W/m2 OVC
01:46 18.3 °C 17.7 °C 1013.4 hPa Calm     96% 0 mm 0.0 W/m2 OVC
01:51 18.3 °C 17.7 °C 1013.4 hPa Calm     96% 0 mm 0.0 W/m2 OVC
01:56 18.3 °C 17.7 °C 1013.4 hPa Calm     96% 0 mm 0.0 W/m2 OVC
02:01 17.8 °C 17.8 °C 1013.4 hPa Calm     100% 0 mm 0.0 W/m2 OVC
02:06 17.8 °C 17.8 °C 1013.4 hPa Calm     100% 0 mm 0.0 W/m2 OVC
02:11 17.8 °C 17.8 °C 1013.4 hPa Calm     100% 0 mm 0.0 W/m2 OVC
02:21 17.8 °C 17.8 °C 1013.1 hPa Calm     100% 0 mm 0.0 W/m2 OVC
02:26 17.8 °C 17.8 °C 1013.1 hPa Calm     100% 0 mm 0.0 W/m2 OVC
02:31 17.8 °C 17.8 °C 1013.1 hPa Calm     100% 0 mm 0.0 W/m2 OVC
02:36 17.8 °C 17.8 °C 1013.1 hPa Calm     100% 0 mm 0.0 W/m2 OVC
02:41 17.8 °C 17.8 °C 1013.1 hPa Calm     100% 0 mm 0.0 W/m2 OVC
02:46 17.8 °C 17.8 °C 1013.1 hPa Calm     100% 0 mm 0.0 W/m2 OVC
02:51 17.8 °C 17.8 °C 1013.1 hPa Calm     100% 0 mm 0.0 W/m2 OVC
02:56 17.8 °C 17.8 °C 1013.1 hPa Calm     100% 0 mm 0.0 W/m2 OVC
03:01 17.2 °C 17.2 °C 1013.4 hPa Calm     100% 0 mm 0.0 W/m2 OVC
03:06 17.2 °C 17.2 °C 1013.4 hPa Calm     100% 0 mm 0.0 W/m2 OVC
03:11 17.2 °C 17.2 °C 1013.4 hPa Calm     100% 0 mm 0.0 W/m2 OVC
03:16 17.2 °C 17.2 °C 1013.4 hPa Calm     100% 0 mm 0.0 W/m2 OVC
03:21 17.2 °C 17.2 °C 1013.4 hPa Calm     100% 0 mm 0.0 W/m2 OVC
03:26 17.2 °C 17.2 °C 1013.4 hPa Calm     100% 0 mm 0.0 W/m2 OVC
03:31 17.2 °C 17.2 °C 1013.4 hPa Calm     100% 0 mm 0.0 W/m2 OVC
03:36 17.2 °C 17.2 °C 1013.4 hPa Calm     100% 0 mm 0.0 W/m2 OVC
03:41 17.2 °C 17.2 °C 1013.4 hPa Calm     100% 0 mm 0.0 W/m2 OVC
03:46 17.2 °C 17.2 °C 1013.4 hPa Calm     100% 0 mm 0.0 W/m2 OVC
03:56 17.2 °C 17.2 °C 1013.4 hPa Calm     100% 0 mm 0.0 W/m2 OVC
04:01 16.7 °C 16.7 °C 1013.4 hPa Calm     100% 0 mm 0.0 W/m2 OVC
04:06 16.7 °C 16.7 °C 1013.4 hPa Calm     100% 0 mm 0.0 W/m2 OVC
04:11 16.7 °C 16.7 °C 1013.4 hPa Calm     100% 0 mm 0.0 W/m2 OVC
04:16 16.7 °C 16.7 °C 1013.4 hPa Calm     100% 0 mm 0.0 W/m2 OVC
04:21 16.7 °C 16.7 °C 1013.4 hPa Calm     100% 0 mm 0.0 W/m2 OVC
04:36 16.7 °C 16.7 °C 1013.4 hPa Calm     100% 0 mm 0.0 W/m2 OVC
04:46 16.7 °C 16.7 °C 1013.4 hPa Calm     100% 0 mm 0.0 W/m2 OVC
04:56 16.7 °C 16.7 °C 1013.4 hPa Calm     100% 0 mm 0.0 W/m2 OVC
05:01 16.1 °C 16.1 °C 1013.1 hPa Calm     100% 0 mm 0.0 W/m2 BKN
05:16 16.1 °C 16.1 °C 1013.1 hPa Calm     100% 0 mm 0.0 W/m2 FEW
05:17 16.1 °C 16.1 °C 1013.1 hPa Calm     100% 0 mm 0.0 W/m2 FEW
05:27 16.1 °C 16.1 °C 1013.1 hPa Calm     100% 0 mm 0.0 W/m2 FEW
05:32 16.1 °C 16.1 °C 1013.1 hPa Calm     100% 0 mm 0.0 W/m2 BKN
05:37 16.1 °C 16.1 °C 1013.1 hPa Calm     100% 0 mm 0.0 W/m2 BKN
05:42 16.1 °C 16.1 °C 1013.1 hPa Calm     100% 0 mm 0.0 W/m2 BKN
05:47 16.1 °C 16.1 °C 1013.1 hPa Calm     100% 0 mm 0.0 W/m2 OVC
05:57 16.1 °C 16.1 °C 1013.1 hPa Calm     100% 0 mm 0.0 W/m2 OVC
06:02 16.1 °C 15.4 °C 1012.4 hPa Calm     96% 0 mm 0.0 W/m2 OVC
06:17 16.1 °C 16.1 °C 1012.4 hPa Calm     100% 0 mm 0.0 W/m2 OVC
06:22 16.1 °C 16.1 °C 1012.4 hPa Calm     100% 0 mm 0.0 W/m2 OVC
06:27 16.1 °C 16.1 °C 1012.4 hPa Calm     100% 0 mm 0.0 W/m2 OVC
06:37 16.1 °C 16.1 °C 1012.4 hPa Calm     100% 0 mm 0.0 W/m2 OVC
06:42 16.1 °C 16.1 °C 1012.4 hPa Calm     100% 0 mm 0.0 W/m2 OVC
06:47 16.1 °C 16.1 °C 1012.4 hPa Calm     100% 0 mm 0.0 W/m2 OVC
06:52 16.1 °C 16.1 °C 1012.4 hPa Calm     100% 0 mm 0.0 W/m2 OVC
06:57 16.1 °C 16.1 °C 1012.4 hPa Calm     100% 0 mm 0.0 W/m2 OVC
07:12 16.7 °C 16.1 °C 1012.4 hPa Calm     96% 0 mm 0.0 W/m2 OVC
07:22 16.7 °C 16.1 °C 1012.4 hPa Calm     96% 0 mm 0.0 W/m2 OVC
07:27 16.7 °C 16.1 °C 1012.4 hPa Calm     96% 0 mm 0.0 W/m2 OVC
07:32 16.7 °C 16.1 °C 1012.4 hPa Calm     96% 0 mm 0.0 W/m2 OVC
07:42 16.7 °C 16.1 °C 1012.4 hPa Calm     96% 0 mm 0.0 W/m2 OVC
07:47 16.7 °C 16.1 °C 1012.4 hPa Calm     96% 0 mm 0.0 W/m2 OVC
07:52 16.7 °C 16.1 °C 1012.4 hPa Calm     96% 0 mm 0.0 W/m2 OVC
07:57 16.7 °C 16.1 °C 1012.4 hPa Calm     96% 0 mm 0.0 W/m2 OVC
08:02 17.2 °C 16.6 °C 1012.8 hPa Calm     96% 0 mm 0.0 W/m2 OVC
08:07 17.2 °C 16.6 °C 1012.8 hPa Calm     96% 0 mm 0.0 W/m2 OVC
08:12 17.2 °C 16.6 °C 1012.8 hPa Calm     96% 0 mm 0.0 W/m2 OVC
08:17 17.2 °C 16.6 °C 1012.8 hPa Calm     96% 0 mm 0.0 W/m2 OVC
08:22 17.2 °C 16.6 °C 1012.8 hPa Calm     96% 0 mm 0.0 W/m2 OVC
08:27 17.2 °C 16.6 °C 1012.8 hPa Calm     96% 0 mm 0.0 W/m2 OVC
08:32 17.2 °C 16.6 °C 1012.8 hPa Calm     96% 0 mm 0.0 W/m2 OVC
08:37 17.2 °C 16.6 °C 1012.8 hPa Calm     96% 0 mm 0.0 W/m2 OVC
08:42 17.2 °C 16.6 °C 1012.8 hPa Calm     96% 0 mm 0.0 W/m2 OVC
08:57 17.2 °C 16.6 °C 1012.8 hPa Calm     96% 0 mm 0.0 W/m2 OVC
09:02 17.8 °C 17.2 °C 1012.4 hPa Calm     96% 0 mm 0.0 W/m2 OVC
09:07 17.8 °C 17.2 °C 1012.4 hPa Calm     96% 0 mm 0.0 W/m2 OVC
09:12 17.8 °C 17.2 °C 1012.4 hPa Calm     96% 0 mm 0.0 W/m2 OVC
09:17 17.8 °C 17.2 °C 1012.4 hPa Calm     96% 0 mm 0.0 W/m2 OVC
09:22 17.8 °C 17.2 °C 1012.4 hPa Calm     96% 0 mm 0.0 W/m2 OVC
09:32 17.8 °C 17.2 °C 1012.4 hPa Calm     96% 0 mm 0.0 W/m2 OVC
09:37 17.8 °C 17.2 °C 1012.4 hPa Calm     96% 0 mm 0.0 W/m2 OVC
09:52 17.8 °C 17.2 °C 1012.4 hPa Calm     96% 0 mm 0.0 W/m2 OVC
09:57 17.8 °C 17.2 °C 1012.4 hPa Calm     96% 0 mm 0.0 W/m2 OVC
10:02 19.4 °C 18.2 °C 1012.4 hPa Calm     93% 0 mm 0.0 W/m2 OVC
10:12 19.4 °C 18.2 °C 1012.4 hPa Calm     93% 0 mm 0.0 W/m2 OVC
10:17 19.4 °C 18.2 °C 1012.4 hPa Calm     93% 0 mm 0.0 W/m2 OVC
10:22 19.4 °C 18.2 °C 1012.4 hPa Calm     93% 0 mm 0.0 W/m2 OVC
10:27 19.4 °C 18.2 °C 1012.4 hPa Calm     93% 0 mm 0.0 W/m2 OVC
10:32 19.4 °C 18.2 °C 1012.4 hPa Calm     93% 0 mm 0.0 W/m2 OVC
10:37 19.4 °C 18.2 °C 1012.4 hPa Calm     93% 0 mm 0.0 W/m2 OVC
10:47 19.4 °C 18.2 °C 1012.4 hPa Calm     93% 0 mm 0.0 W/m2 OVC
10:52 19.4 °C 18.2 °C 1012.4 hPa Calm     93% 0 mm 0.0 W/m2 OVC
11:07 22.2 °C 20.5 °C 1012.4 hPa Calm     90% 0 mm 0.0 W/m2 OVC
11:12 22.2 °C 20.5 °C 1012.4 hPa Calm     90% 0 mm 0.0 W/m2 OVC
11:17 22.2 °C 20.5 °C 1012.4 hPa Calm     90% 0 mm 0.0 W/m2 OVC
11:22 22.2 °C 20.5 °C 1012.4 hPa Calm     90% 0 mm 0.0 W/m2 OVC
11:27 22.2 °C 20.5 °C 1012.4 hPa Calm     90% 0 mm 0.0 W/m2 OVC
11:32 24.4 °C 20.9 °C 1011.7 hPa Calm     81% 0 mm 0.0 W/m2 OVC
11:37 24.4 °C 20.9 °C 1011.7 hPa Calm     81% 0 mm 0.0 W/m2 OVC
11:42 24.4 °C 20.9 °C 1011.7 hPa Calm     81% 0 mm 0.0 W/m2 OVC
11:47 24.4 °C 20.9 °C 1011.1 hPa Calm     81% 0 mm 0.0 W/m2 BKN
11:52 24.4 °C 20.9 °C 1011.1 hPa Calm     81% 0 mm 0.0 W/m2 BKN
11:57 24.4 °C 20.9 °C 1011.1 hPa Calm     81% 0 mm 0.0 W/m2 BKN
12:07 25 °C 20.9 °C 1011.1 hPa Calm     78% 0 mm 0.0 W/m2 FEW
12:12 25 °C 20.9 °C 1011.1 hPa Calm     78% 0 mm 0.0 W/m2 FEW
12:17 25 °C 20.9 °C 1011.1 hPa Calm     78% 0 mm 0.0 W/m2 FEW
12:22 25 °C 20.9 °C 1011.1 hPa Calm     78% 0 mm 0.0 W/m2 FEW
12:27 25 °C 20.9 °C 1011.1 hPa Calm     78% 0 mm 0.0 W/m2 FEW
12:32 25 °C 20.9 °C 1011.1 hPa Calm     78% 0 mm 0.0 W/m2 FEW
12:37 25 °C 20.9 °C 1011.1 hPa Calm     78% 0 mm 0.0 W/m2 FEW
12:42 25 °C 20.9 °C 1011.1 hPa Calm     78% 0 mm 0.0 W/m2 FEW
12:57 25 °C 20.9 °C 1011.1 hPa Calm     78% 0 mm 0.0 W/m2 BKN
13:02 26.7 °C 20.6 °C 1009.4 hPa Calm     69% 0 mm 0.0 W/m2 SCT
13:07 26.7 °C 20.6 °C 1009.4 hPa Calm     69% 0 mm 0.0 W/m2 SCT
13:12 26.7 °C 20.6 °C 1009.4 hPa Calm     69% 0 mm 0.0 W/m2 SCT
13:17 26.7 °C 20.6 °C 1009.4 hPa Calm     69% 0 mm 0.0 W/m2 SCT
13:22 26.7 °C 20.6 °C 1009.4 hPa Calm     69% 0 mm 0.0 W/m2 SCT
13:27 26.7 °C 20.6 °C 1009.4 hPa Calm     69% 0 mm 0.0 W/m2 SCT
13:32 26.7 °C 20.6 °C 1009.4 hPa Calm     69% 0 mm 0.0 W/m2 SCT
13:37 26.7 °C 20.6 °C 1009.4 hPa Calm     69% 0 mm 0.0 W/m2 SCT
13:42 26.7 °C 20.6 °C 1009.4 hPa Calm     69% 0 mm 0.0 W/m2 SCT
13:57 26.7 °C 20.6 °C 1009.4 hPa Calm     69% 0 mm 0.0 W/m2 SCT
14:02 28.9 °C 19.2 °C 1008.4 hPa Calm     56% 0 mm 0.0 W/m2 SCT
14:07 28.9 °C 19.2 °C 1008.4 hPa Calm     56% 0 mm 0.0 W/m2 SCT
14:12 28.9 °C 19.2 °C 1008.4 hPa Calm     56% 0 mm 0.0 W/m2 SCT
14:17 28.9 °C 19.2 °C 1008.4 hPa Calm     56% 0 mm 0.0 W/m2 SCT
14:22 28.9 °C 19.2 °C 1008.4 hPa Calm     56% 0 mm 0.0 W/m2 SCT
14:27 28.9 °C 19.2 °C 1008.4 hPa Calm     56% 0 mm 0.0 W/m2 SCT
14:37 28.9 °C 19.2 °C 1008.4 hPa Calm     56% 0 mm 0.0 W/m2 SCT
14:42 28.9 °C 19.2 °C 1008.4 hPa Calm     56% 0 mm 0.0 W/m2 SCT
14:47 28.9 °C 19.2 °C 1008.4 hPa Calm     56% 0 mm 0.0 W/m2 SCT
14:52 28.9 °C 19.2 °C 1008.4 hPa Calm     56% 0 mm 0.0 W/m2 SCT
14:57 28.9 °C 19.2 °C 1008.4 hPa Calm     56% 0 mm 0.0 W/m2 SCT
15:02 27.8 °C 18.8 °C 1007.7 hPa Calm     58% 0 mm 0.0 W/m2 FEW
15:07 27.8 °C 18.8 °C 1007.7 hPa Calm     58% 0 mm 0.0 W/m2 FEW
15:12 27.8 °C 18.8 °C 1007.7 hPa Calm     58% 0 mm 0.0 W/m2 FEW
15:22 27.8 °C 18.8 °C 1007.7 hPa Calm     58% 0 mm 0.0 W/m2 FEW
15:27 27.8 °C 18.8 °C 1007.7 hPa Calm     58% 0 mm 0.0 W/m2 FEW
15:37 27.8 °C 18.8 °C 1007.7 hPa Calm     58% 0 mm 0.0 W/m2 FEW
15:47 27.8 °C 18.8 °C 1007.7 hPa Calm     58% 0 mm 0.0 W/m2 FEW
15:52 27.8 °C 18.8 °C 1007.7 hPa Calm     58% 0 mm 0.0 W/m2 FEW
15:57 27.8 °C 18.8 °C 1007.7 hPa Calm     58% 0 mm 0.0 W/m2 FEW
16:02 26.7 °C 19.3 °C 1007.7 hPa Calm     64% 0 mm 0.0 W/m2 CLR
16:07 26.7 °C 19.3 °C 1007.7 hPa Calm     64% 0 mm 0.0 W/m2 CLR
16:12 26.7 °C 19.3 °C 1007.7 hPa Calm     64% 0 mm 0.0 W/m2 CLR
16:17 26.7 °C 19.3 °C 1007.7 hPa Calm     64% 0 mm 0.0 W/m2 CLR
16:23 26.7 °C 19.3 °C 1007.7 hPa Calm     64% 0 mm 0.0 W/m2 CLR
16:28 26.7 °C 19.3 °C 1007.7 hPa Calm     64% 0 mm 0.0 W/m2 CLR
16:33 26.7 °C 19.3 °C 1007.7 hPa Calm     64% 0 mm 0.0 W/m2 CLR
16:43 26.7 °C 19.3 °C 1007.7 hPa Calm     64% 0 mm 0.0 W/m2 CLR
16:48 26.7 °C 19.3 °C 1007.7 hPa Calm     64% 0 mm 0.0 W/m2 CLR
16:53 26.7 °C 19.3 °C 1007.7 hPa Calm     64% 0 mm 0.0 W/m2 CLR
16:58 26.7 °C 19.3 °C 1007.7 hPa Calm     64% 0 mm 0.0 W/m2 CLR
17:03 26.7 °C 18.8 °C 1007.7 hPa Calm     62% 0 mm 0.0 W/m2 SCT
17:08 26.7 °C 18.8 °C 1007.7 hPa Calm     62% 0 mm 0.0 W/m2 SCT
17:13 26.7 °C 18.8 °C 1007.7 hPa Calm     62% 0 mm 0.0 W/m2 SCT
17:18 26.7 °C 18.8 °C 1007.7 hPa Calm     62% 0 mm 0.0 W/m2 SCT
17:23 26.7 °C 18.8 °C 1007.7 hPa Calm     62% 0 mm 0.0 W/m2 SCT
17:33 26.7 °C 18.8 °C 1007.7 hPa Calm     62% 0 mm 0.0 W/m2 SCT
17:43 26.7 °C 18.8 °C 1007.7 hPa Calm     62% 0 mm 0.0 W/m2 SCT
17:48 26.7 °C 18.8 °C 1007.7 hPa Calm     62% 0 mm 0.0 W/m2 SCT
17:58 26.7 °C 18.8 °C 1007.7 hPa Calm     62% 0 mm 0.0 W/m2 SCT
18:03 26.1 °C 19.2 °C 1008 hPa Calm     66% 0 mm 0.0 W/m2 BKN
18:13 26.1 °C 19.2 °C 1008 hPa Calm     66% 0 mm 0.0 W/m2 BKN
18:18 26.1 °C 19.2 °C 1008 hPa Calm     66% 0 mm 0.0 W/m2 BKN
18:23 26.1 °C 19.2 °C 1008 hPa Calm     66% 0 mm 0.0 W/m2 BKN
18:28 26.1 °C 19.2 °C 1008 hPa Calm     66% 0 mm 0.0 W/m2 BKN
18:33 26.1 °C 19.2 °C 1008 hPa Calm     66% 0 mm 0.0 W/m2 BKN
18:43 26.1 °C 19.2 °C 1008 hPa Calm     66% 0 mm 0.0 W/m2 BKN
18:48 26.1 °C 19.2 °C 1008 hPa Calm     66% 0 mm 0.0 W/m2 BKN
18:53 26.1 °C 19.2 °C 1008 hPa Calm     66% 0 mm 0.0 W/m2 BKN
18:58 26.1 °C 19.2 °C 1008 hPa Calm     66% 0 mm 0.0 W/m2 BKN
19:03 25 °C 19.8 °C 1008.4 hPa Calm     73% 0 mm 0.0 W/m2 BKN
19:13 25 °C 19.8 °C 1008.4 hPa Calm     73% 0 mm 0.0 W/m2 BKN
19:18 25 °C 19.8 °C 1008.4 hPa Calm     73% 0 mm 0.0 W/m2 BKN
19:28 25 °C 19.8 °C 1008.4 hPa Calm     73% 0 mm 0.0 W/m2 BKN
19:33 25 °C 19.8 °C 1008.4 hPa Calm     73% 0 mm 0.0 W/m2 BKN
19:38 25 °C 19.8 °C 1008.4 hPa Calm     73% 0 mm 0.0 W/m2 BKN
19:43 25 °C 19.8 °C 1008.4 hPa Calm     73% 0 mm 0.0 W/m2 BKN
19:48 25 °C 19.8 °C 1008.4 hPa Calm     73% 0 mm 0.0 W/m2 BKN
19:53 25 °C 19.8 °C 1008.4 hPa Calm     73% 0 mm 0.0 W/m2 BKN
19:58 25 °C 19.8 °C 1008.4 hPa Calm     73% 0 mm 0.0 W/m2 BKN
20:03 25 °C 20.5 °C 1008.7 hPa Calm     76% 0.51 mm 0.0 W/m2 -RA
20:08 25 °C 20.5 °C 1008.7 hPa Calm     76% 0.51 mm 0.0 W/m2 -RA
20:13 25 °C 20.5 °C 1008.7 hPa Calm     76% 0.51 mm 0.0 W/m2 -RA
20:18 25 °C 20.5 °C 1008.7 hPa Calm     76% 0.51 mm 0.0 W/m2 -RA
20:23 25 °C 20.5 °C 1008.7 hPa Calm     76% 0.51 mm 0.0 W/m2 -RA
20:33 25 °C 20.5 °C 1008.7 hPa Calm     76% 0.51 mm 0.0 W/m2 -RA
20:38 25 °C 20.5 °C 1008.7 hPa Calm     76% 0.51 mm 0.0 W/m2 -RA
20:43 25 °C 20.5 °C 1008.7 hPa Calm     76% 0.51 mm 0.0 W/m2 -RA
20:48 25 °C 20.5 °C 1008.7 hPa Calm     76% 0.51 mm 0.0 W/m2 -RA
20:53 25 °C 20.5 °C 1008.7 hPa Calm     76% 0.51 mm 0.0 W/m2 -RA
21:03 24.4 °C 20.5 °C 1008.7 hPa Calm     79% 0.51 mm 0.0 W/m2 RA
21:08 24.4 °C 20.5 °C 1008.7 hPa Calm     79% 0.51 mm 0.0 W/m2 RA
21:13 24.4 °C 20.5 °C 1008.7 hPa Calm     79% 0.51 mm 0.0 W/m2 SCT
21:18 24.4 °C 20.5 °C 1008.7 hPa Calm     79% 0.51 mm 0.0 W/m2 SCT
21:23 24.4 °C 20.5 °C 1008.7 hPa Calm     79% 0.51 mm 0.0 W/m2 SCT
21:28 24.4 °C 20.5 °C 1008.7 hPa Calm     79% 0.51 mm 0.0 W/m2 SCT
21:33 24.4 °C 20.5 °C 1008.7 hPa Calm     79% 0.51 mm 0.0 W/m2 SCT
21:38 24.4 °C 20.5 °C 1008.7 hPa Calm     79% 0.51 mm 0.0 W/m2 SCT
21:43 24.4 °C 20.5 °C 1008.7 hPa Calm     79% 0.51 mm 0.0 W/m2 SCT
21:53 24.4 °C 20.9 °C 1009 hPa Calm     81% 0.51 mm 0.0 W/m2 SCT
21:58 24.4 °C 20.9 °C 1009 hPa Calm     81% 0.51 mm 0.0 W/m2 SCT
22:03 23.9 °C 21.6 °C 1009 hPa Calm     87% 0.25 mm 0.0 W/m2 RA
22:08 23.9 °C 21.6 °C 1009 hPa Calm     87% 0.25 mm 0.0 W/m2 RA
22:19 23.9 °C 21.6 °C 1009 hPa Calm     87% 0.25 mm 0.0 W/m2 SCT
22:20 23.9 °C 21.6 °C 1009 hPa Calm     87% 0.25 mm 0.0 W/m2 SCT
22:25 23.9 °C 21.6 °C 1009 hPa Calm     87% 0.25 mm 0.0 W/m2 SCT
22:27 23.9 °C 21.6 °C 1009 hPa Calm     87% 0.25 mm 0.0 W/m2 SCT
22:37 23.9 °C 21.6 °C 1009 hPa Calm     87% 0.25 mm 0.0 W/m2 SCT
22:47 23.9 °C 21.6 °C 1009 hPa Calm     87% 0.25 mm 0.0 W/m2 SCT
22:52 23.9 °C 21.6 °C 1009 hPa Calm     87% 0.25 mm 0.0 W/m2 SCT
23:02 23.3 °C 21.6 °C 1008.7 hPa Calm     90% 0 mm 0.0 W/m2 SCT
23:07 23.3 °C 21.6 °C 1008.7 hPa Calm     90% 0 mm 0.0 W/m2 SCT
23:12 23.3 °C 21.6 °C 1008.7 hPa Calm     90% 0 mm 0.0 W/m2 SCT
23:17 23.3 °C 21.6 °C 1008.7 hPa Calm     90% 0 mm 0.0 W/m2 SCT
23:22 23.3 °C 21.6 °C 1008.7 hPa Calm     90% 0 mm 0.0 W/m2 SCT
23:28 23.3 °C 21.6 °C 1008.7 hPa Calm     90% 0 mm 0.0 W/m2 SCT
23:33 23.3 °C 21.6 °C 1008.7 hPa Calm     90% 0 mm 0.0 W/m2 SCT
23:43 23.3 °C 21.6 °C 1008.7 hPa Calm     90% 0 mm 0.0 W/m2 SCT
23:48 23.3 °C 21.6 °C 1008.7 hPa Calm     90% 0 mm 0.0 W/m2 SCT
23:53 23.3 °C 21.6 °C 1008.7 hPa Calm     90% 0 mm 0.0 W/m2 SCT
23:58 23.3 °C 21.6 °C 1008.7 hPa Calm     90% 0 mm 0.0 W/m2 SCT
Lake Mary, FL, USA
Compliments of Weather Underground - 1.75 mb